sensor_id;sensor_type;location;lat;lon;timestamp;P1;durP1;ratioP1;P2;durP2;ratioP2
47882;SDS011;37739;50.350;7.578;2022-12-10T00:01:24;13.87;;;9.83;;
47882;SDS011;37739;50.350;7.578;2022-12-10T00:03:52;10.90;;;9.80;;
47882;SDS011;37739;50.350;7.578;2022-12-10T00:06:22;12.70;;;10.37;;
47882;SDS011;37739;50.350;7.578;2022-12-10T00:08:49;11.50;;;10.00;;
47882;SDS011;37739;50.350;7.578;2022-12-10T00:11:18;11.43;;;9.50;;
47882;SDS011;37739;50.350;7.578;2022-12-10T00:13:44;11.10;;;9.37;;
47882;SDS011;37739;50.350;7.578;2022-12-10T00:16:13;10.50;;;8.87;;
47882;SDS011;37739;50.350;7.578;2022-12-10T00:18:40;11.53;;;9.50;;
47882;SDS011;37739;50.350;7.578;2022-12-10T00:21:10;12.33;;;10.53;;
47882;SDS011;37739;50.350;7.578;2022-12-10T00:23:40;12.57;;;10.43;;
47882;SDS011;37739;50.350;7.578;2022-12-10T00:26:06;15.47;;;11.70;;
47882;SDS011;37739;50.350;7.578;2022-12-10T00:28:37;13.00;;;10.30;;
47882;SDS011;37739;50.350;7.578;2022-12-10T00:31:04;13.13;;;9.63;;
47882;SDS011;37739;50.350;7.578;2022-12-10T00:33:31;12.50;;;10.93;;
47882;SDS011;37739;50.350;7.578;2022-12-10T00:36:07;10.70;;;9.60;;
47882;SDS011;37739;50.350;7.578;2022-12-10T00:38:34;11.77;;;10.27;;
47882;SDS011;37739;50.350;7.578;2022-12-10T00:41:00;12.13;;;10.57;;
47882;SDS011;37739;50.350;7.578;2022-12-10T00:43:25;11.90;;;10.33;;
47882;SDS011;37739;50.350;7.578;2022-12-10T00:45:52;13.47;;;11.80;;
47882;SDS011;37739;50.350;7.578;2022-12-10T00:48:18;11.60;;;10.40;;
47882;SDS011;37739;50.350;7.578;2022-12-10T00:50:54;11.97;;;9.97;;
47882;SDS011;37739;50.350;7.578;2022-12-10T00:53:26;12.93;;;10.40;;
47882;SDS011;37739;50.350;7.578;2022-12-10T00:55:56;11.53;;;9.20;;
47882;SDS011;37739;50.350;7.578;2022-12-10T00:58:26;13.87;;;10.93;;
47882;SDS011;37739;50.350;7.578;2022-12-10T01:00:52;12.23;;;10.93;;
47882;SDS011;37739;50.350;7.578;2022-12-10T01:03:18;12.77;;;11.37;;
47882;SDS011;37739;50.350;7.578;2022-12-10T01:05:48;11.67;;;10.40;;
47882;SDS011;37739;50.350;7.578;2022-12-10T01:08:13;12.30;;;11.00;;
47882;SDS011;37739;50.350;7.578;2022-12-10T01:10:38;13.83;;;11.77;;
47882;SDS011;37739;50.350;7.578;2022-12-10T01:13:06;10.70;;;9.60;;
47882;SDS011;37739;50.350;7.578;2022-12-10T01:15:31;10.53;;;9.03;;
47882;SDS011;37739;50.350;7.578;2022-12-10T01:18:04;11.53;;;9.70;;
47882;SDS011;37739;50.350;7.578;2022-12-10T01:20:34;11.83;;;9.50;;
47882;SDS011;37739;50.350;7.578;2022-12-10T01:23:03;14.53;;;10.00;;
47882;SDS011;37739;50.350;7.578;2022-12-10T01:25:28;10.83;;;9.73;;
47882;SDS011;37739;50.350;7.578;2022-12-10T01:27:55;11.80;;;9.37;;
47882;SDS011;37739;50.350;7.578;2022-12-10T01:30:22;10.80;;;9.70;;
47882;SDS011;37739;50.350;7.578;2022-12-10T01:32:47;12.30;;;11.10;;
47882;SDS011;37739;50.350;7.578;2022-12-10T01:35:13;15.23;;;12.67;;
47882;SDS011;37739;50.350;7.578;2022-12-10T01:37:39;14.17;;;12.50;;
47882;SDS011;37739;50.350;7.578;2022-12-10T01:40:04;11.63;;;10.27;;
47882;SDS011;37739;50.350;7.578;2022-12-10T01:42:39;12.90;;;11.33;;
47882;SDS011;37739;50.350;7.578;2022-12-10T01:45:10;14.53;;;11.47;;
47882;SDS011;37739;50.350;7.578;2022-12-10T01:47:36;12.57;;;10.40;;
47882;SDS011;37739;50.350;7.578;2022-12-10T01:50:05;11.90;;;10.20;;
47882;SDS011;37739;50.350;7.578;2022-12-10T01:52:33;11.93;;;10.53;;
47882;SDS011;37739;50.350;7.578;2022-12-10T01:55:05;11.20;;;10.10;;
47882;SDS011;37739;50.350;7.578;2022-12-10T01:57:33;11.90;;;9.90;;
47882;SDS011;37739;50.350;7.578;2022-12-10T02:00:00;12.27;;;11.03;;
47882;SDS011;37739;50.350;7.578;2022-12-10T02:05:44;14.07;;;11.30;;
47882;SDS011;37739;50.350;7.578;2022-12-10T02:08:26;14.07;;;10.10;;
47882;SDS011;37739;50.350;7.578;2022-12-10T02:16:33;13.73;;;11.50;;
47882;SDS011;37739;50.350;7.578;2022-12-10T02:21:53;13.90;;;10.80;;
47882;SDS011;37739;50.350;7.578;2022-12-10T02:24:23;12.33;;;10.10;;
47882;SDS011;37739;50.350;7.578;2022-12-10T02:27:00;10.60;;;9.33;;
47882;SDS011;37739;50.350;7.578;2022-12-10T02:29:36;11.17;;;9.67;;
47882;SDS011;37739;50.350;7.578;2022-12-10T02:32:06;14.00;;;11.27;;
47882;SDS011;37739;50.350;7.578;2022-12-10T02:34:41;16.97;;;11.07;;
47882;SDS011;37739;50.350;7.578;2022-12-10T02:37:20;9.97;;;8.93;;
47882;SDS011;37739;50.350;7.578;2022-12-10T02:39:54;12.17;;;10.60;;
47882;SDS011;37739;50.350;7.578;2022-12-10T02:42:23;12.97;;;11.30;;
47882;SDS011;37739;50.350;7.578;2022-12-10T02:44:56;10.63;;;9.57;;
47882;SDS011;37739;50.350;7.578;2022-12-10T02:47:22;11.33;;;10.10;;
47882;SDS011;37739;50.350;7.578;2022-12-10T02:49:51;13.60;;;11.03;;
47882;SDS011;37739;50.350;7.578;2022-12-10T02:52:19;15.13;;;12.50;;
47882;SDS011;37739;50.350;7.578;2022-12-10T02:54:46;14.60;;;11.50;;
47882;SDS011;37739;50.350;7.578;2022-12-10T03:05:34;11.87;;;9.80;;
47882;SDS011;37739;50.350;7.578;2022-12-10T03:13:18;12.17;;;10.80;;
47882;SDS011;37739;50.350;7.578;2022-12-10T03:15:50;13.20;;;11.80;;
47882;SDS011;37739;50.350;7.578;2022-12-10T03:18:19;13.70;;;12.27;;
47882;SDS011;37739;50.350;7.578;2022-12-10T03:20:50;12.93;;;11.27;;
47882;SDS011;37739;50.350;7.578;2022-12-10T03:23:18;12.70;;;10.87;;
47882;SDS011;37739;50.350;7.578;2022-12-10T03:25:47;14.73;;;11.90;;
47882;SDS011;37739;50.350;7.578;2022-12-10T03:28:17;12.87;;;11.53;;
47882;SDS011;37739;50.350;7.578;2022-12-10T03:30:46;13.10;;;10.50;;
47882;SDS011;37739;50.350;7.578;2022-12-10T03:33:13;12.37;;;10.73;;
47882;SDS011;37739;50.350;7.578;2022-12-10T03:35:40;12.67;;;10.60;;
47882;SDS011;37739;50.350;7.578;2022-12-10T03:38:06;13.53;;;11.40;;
47882;SDS011;37739;50.350;7.578;2022-12-10T03:40:33;12.50;;;10.50;;
47882;SDS011;37739;50.350;7.578;2022-12-10T03:43:01;13.50;;;12.10;;
47882;SDS011;37739;50.350;7.578;2022-12-10T03:45:26;14.97;;;12.27;;
47882;SDS011;37739;50.350;7.578;2022-12-10T03:47:51;11.63;;;10.43;;
47882;SDS011;37739;50.350;7.578;2022-12-10T03:50:21;15.00;;;11.67;;
47882;SDS011;37739;50.350;7.578;2022-12-10T03:52:51;11.20;;;9.17;;
47882;SDS011;37739;50.350;7.578;2022-12-10T03:55:18;12.63;;;10.10;;
47882;SDS011;37739;50.350;7.578;2022-12-10T03:57:44;14.10;;;11.50;;
47882;SDS011;37739;50.350;7.578;2022-12-10T04:00:09;13.93;;;11.93;;
47882;SDS011;37739;50.350;7.578;2022-12-10T04:02:38;12.47;;;11.17;;
47882;SDS011;37739;50.350;7.578;2022-12-10T04:05:06;13.20;;;11.60;;
47882;SDS011;37739;50.350;7.578;2022-12-10T04:07:32;13.70;;;11.70;;
47882;SDS011;37739;50.350;7.578;2022-12-10T04:09:58;12.10;;;10.87;;
47882;SDS011;37739;50.350;7.578;2022-12-10T04:12:28;12.57;;;11.27;;
47882;SDS011;37739;50.350;7.578;2022-12-10T04:14:53;14.00;;;11.90;;
47882;SDS011;37739;50.350;7.578;2022-12-10T04:17:37;10.20;;;8.60;;
47882;SDS011;37739;50.350;7.578;2022-12-10T04:20:07;14.20;;;12.70;;
47882;SDS011;37739;50.350;7.578;2022-12-10T04:22:52;13.67;;;11.97;;
47882;SDS011;37739;50.350;7.578;2022-12-10T04:25:36;14.80;;;12.30;;
47882;SDS011;37739;50.350;7.578;2022-12-10T04:28:20;14.23;;;11.73;;
47882;SDS011;37739;50.350;7.578;2022-12-10T04:30:45;14.80;;;13.30;;
47882;SDS011;37739;50.350;7.578;2022-12-10T04:33:11;13.30;;;11.43;;
47882;SDS011;37739;50.350;7.578;2022-12-10T04:35:38;15.37;;;12.77;;
47882;SDS011;37739;50.350;7.578;2022-12-10T04:38:05;13.90;;;11.80;;
47882;SDS011;37739;50.350;7.578;2022-12-10T04:40:31;12.97;;;11.50;;
47882;SDS011;37739;50.350;7.578;2022-12-10T04:42:56;15.30;;;13.07;;
47882;SDS011;37739;50.350;7.578;2022-12-10T04:45:21;15.70;;;12.53;;
47882;SDS011;37739;50.350;7.578;2022-12-10T04:47:46;13.87;;;11.83;;
47882;SDS011;37739;50.350;7.578;2022-12-10T04:50:12;15.20;;;13.53;;
47882;SDS011;37739;50.350;7.578;2022-12-10T04:52:37;15.83;;;13.00;;
47882;SDS011;37739;50.350;7.578;2022-12-10T04:55:07;16.70;;;13.70;;
47882;SDS011;37739;50.350;7.578;2022-12-10T04:57:33;16.90;;;14.33;;
47882;SDS011;37739;50.350;7.578;2022-12-10T05:00:01;15.03;;;13.40;;
47882;SDS011;37739;50.350;7.578;2022-12-10T05:02:27;17.03;;;14.10;;
47882;SDS011;37739;50.350;7.578;2022-12-10T05:04:53;19.40;;;15.40;;
47882;SDS011;37739;50.350;7.578;2022-12-10T05:07:18;17.60;;;14.60;;
47882;SDS011;37739;50.350;7.578;2022-12-10T05:09:43;19.50;;;16.10;;
47882;SDS011;37739;50.350;7.578;2022-12-10T05:12:11;19.80;;;16.50;;
47882;SDS011;37739;50.350;7.578;2022-12-10T05:14:41;16.17;;;14.20;;
47882;SDS011;37739;50.350;7.578;2022-12-10T05:17:06;14.30;;;12.83;;
47882;SDS011;37739;50.350;7.578;2022-12-10T05:19:34;11.80;;;10.43;;
47882;SDS011;37739;50.350;7.578;2022-12-10T05:21:59;15.27;;;12.00;;
47882;SDS011;37739;50.350;7.578;2022-12-10T05:24:43;12.40;;;10.77;;
47882;SDS011;37739;50.350;7.578;2022-12-10T05:27:11;13.27;;;11.77;;
47882;SDS011;37739;50.350;7.578;2022-12-10T05:29:36;14.07;;;11.67;;
47882;SDS011;37739;50.350;7.578;2022-12-10T05:32:04;12.97;;;11.23;;
47882;SDS011;37739;50.350;7.578;2022-12-10T05:34:32;13.00;;;11.00;;
47882;SDS011;37739;50.350;7.578;2022-12-10T05:36:57;14.03;;;11.57;;
47882;SDS011;37739;50.350;7.578;2022-12-10T05:39:23;15.50;;;11.77;;
47882;SDS011;37739;50.350;7.578;2022-12-10T05:41:48;12.03;;;10.10;;
47882;SDS011;37739;50.350;7.578;2022-12-10T05:44:16;14.43;;;11.70;;
47882;SDS011;37739;50.350;7.578;2022-12-10T05:46:43;13.67;;;12.27;;
47882;SDS011;37739;50.350;7.578;2022-12-10T05:49:11;14.43;;;11.60;;
47882;SDS011;37739;50.350;7.578;2022-12-10T05:51:37;16.80;;;13.13;;
47882;SDS011;37739;50.350;7.578;2022-12-10T05:54:06;18.53;;;13.60;;
47882;SDS011;37739;50.350;7.578;2022-12-10T05:56:34;14.93;;;12.20;;
47882;SDS011;37739;50.350;7.578;2022-12-10T05:59:00;13.97;;;12.47;;
47882;SDS011;37739;50.350;7.578;2022-12-10T06:01:28;13.97;;;11.53;;
47882;SDS011;37739;50.350;7.578;2022-12-10T06:03:59;16.60;;;12.50;;
47882;SDS011;37739;50.350;7.578;2022-12-10T06:06:29;15.80;;;11.93;;
47882;SDS011;37739;50.350;7.578;2022-12-10T06:08:57;15.83;;;13.00;;
47882;SDS011;37739;50.350;7.578;2022-12-10T06:11:22;15.60;;;11.90;;
47882;SDS011;37739;50.350;7.578;2022-12-10T06:13:48;15.27;;;11.93;;
47882;SDS011;37739;50.350;7.578;2022-12-10T06:16:16;14.17;;;11.60;;
47882;SDS011;37739;50.350;7.578;2022-12-10T06:18:41;15.13;;;12.00;;
47882;SDS011;37739;50.350;7.578;2022-12-10T06:21:11;15.17;;;12.23;;
47882;SDS011;37739;50.350;7.578;2022-12-10T06:23:39;16.87;;;12.60;;
47882;SDS011;37739;50.350;7.578;2022-12-10T06:26:05;16.80;;;12.30;;
47882;SDS011;37739;50.350;7.578;2022-12-10T06:28:37;16.30;;;13.03;;
47882;SDS011;37739;50.350;7.578;2022-12-10T06:31:04;16.83;;;13.07;;
47882;SDS011;37739;50.350;7.578;2022-12-10T06:33:29;17.97;;;14.43;;
47882;SDS011;37739;50.350;7.578;2022-12-10T06:35:55;15.07;;;12.90;;
47882;SDS011;37739;50.350;7.578;2022-12-10T06:38:20;15.77;;;13.07;;
47882;SDS011;37739;50.350;7.578;2022-12-10T06:40:46;18.20;;;13.73;;
47882;SDS011;37739;50.350;7.578;2022-12-10T06:43:12;16.90;;;14.17;;
47882;SDS011;37739;50.350;7.578;2022-12-10T06:45:40;18.03;;;14.83;;
47882;SDS011;37739;50.350;7.578;2022-12-10T06:48:07;18.30;;;13.57;;
47882;SDS011;37739;50.350;7.578;2022-12-10T06:50:32;16.00;;;13.30;;
47882;SDS011;37739;50.350;7.578;2022-12-10T06:53:03;16.90;;;13.17;;
47882;SDS011;37739;50.350;7.578;2022-12-10T06:55:31;13.00;;;11.60;;
47882;SDS011;37739;50.350;7.578;2022-12-10T06:57:56;14.93;;;12.77;;
47882;SDS011;37739;50.350;7.578;2022-12-10T07:00:22;15.57;;;13.10;;
47882;SDS011;37739;50.350;7.578;2022-12-10T07:02:49;14.40;;;12.10;;
47882;SDS011;37739;50.350;7.578;2022-12-10T07:05:17;15.90;;;12.30;;
47882;SDS011;37739;50.350;7.578;2022-12-10T07:07:44;14.37;;;12.57;;
47882;SDS011;37739;50.350;7.578;2022-12-10T07:10:12;13.30;;;11.30;;
47882;SDS011;37739;50.350;7.578;2022-12-10T07:12:38;14.60;;;13.03;;
47882;SDS011;37739;50.350;7.578;2022-12-10T07:15:03;15.63;;;13.03;;
47882;SDS011;37739;50.350;7.578;2022-12-10T07:17:31;15.77;;;12.53;;
47882;SDS011;37739;50.350;7.578;2022-12-10T07:19:57;17.03;;;14.23;;
47882;SDS011;37739;50.350;7.578;2022-12-10T07:22:22;17.00;;;13.37;;
47882;SDS011;37739;50.350;7.578;2022-12-10T07:24:48;15.97;;;13.53;;
47882;SDS011;37739;50.350;7.578;2022-12-10T07:27:13;16.70;;;13.97;;
47882;SDS011;37739;50.350;7.578;2022-12-10T07:29:41;14.43;;;12.93;;
47882;SDS011;37739;50.350;7.578;2022-12-10T07:32:06;15.67;;;13.60;;
47882;SDS011;37739;50.350;7.578;2022-12-10T07:34:32;16.60;;;13.43;;
47882;SDS011;37739;50.350;7.578;2022-12-10T07:36:59;15.80;;;13.77;;
47882;SDS011;37739;50.350;7.578;2022-12-10T07:39:25;20.03;;;15.80;;
47882;SDS011;37739;50.350;7.578;2022-12-10T07:41:51;21.23;;;16.53;;
47882;SDS011;37739;50.350;7.578;2022-12-10T07:44:18;24.10;;;16.60;;
47882;SDS011;37739;50.350;7.578;2022-12-10T07:46:45;22.00;;;16.30;;
47882;SDS011;37739;50.350;7.578;2022-12-10T07:49:11;23.90;;;18.23;;
47882;SDS011;37739;50.350;7.578;2022-12-10T07:51:39;25.07;;;17.50;;
47882;SDS011;37739;50.350;7.578;2022-12-10T07:54:10;22.43;;;18.73;;
47882;SDS011;37739;50.350;7.578;2022-12-10T07:56:35;26.07;;;19.03;;
47882;SDS011;37739;50.350;7.578;2022-12-10T07:59:03;22.20;;;17.97;;
47882;SDS011;37739;50.350;7.578;2022-12-10T08:01:31;21.30;;;16.70;;
47882;SDS011;37739;50.350;7.578;2022-12-10T08:03:59;20.57;;;16.23;;
47882;SDS011;37739;50.350;7.578;2022-12-10T08:06:26;19.93;;;15.30;;
47882;SDS011;37739;50.350;7.578;2022-12-10T08:08:52;22.33;;;16.83;;
47882;SDS011;37739;50.350;7.578;2022-12-10T08:11:18;18.60;;;15.10;;
47882;SDS011;37739;50.350;7.578;2022-12-10T08:13:48;15.03;;;13.40;;
47882;SDS011;37739;50.350;7.578;2022-12-10T08:16:15;17.13;;;13.83;;
47882;SDS011;37739;50.350;7.578;2022-12-10T08:18:45;19.23;;;15.47;;
47882;SDS011;37739;50.350;7.578;2022-12-10T08:21:12;20.23;;;14.23;;
47882;SDS011;37739;50.350;7.578;2022-12-10T08:23:41;21.90;;;14.70;;
47882;SDS011;37739;50.350;7.578;2022-12-10T08:26:08;17.07;;;13.67;;
47882;SDS011;37739;50.350;7.578;2022-12-10T08:28:39;17.50;;;14.80;;
47882;SDS011;37739;50.350;7.578;2022-12-10T08:31:04;15.80;;;13.10;;
47882;SDS011;37739;50.350;7.578;2022-12-10T08:33:33;18.97;;;15.00;;
47882;SDS011;37739;50.350;7.578;2022-12-10T08:36:02;17.13;;;13.83;;
47882;SDS011;37739;50.350;7.578;2022-12-10T08:38:30;16.40;;;12.90;;
47882;SDS011;37739;50.350;7.578;2022-12-10T08:40:56;15.97;;;13.50;;
47882;SDS011;37739;50.350;7.578;2022-12-10T08:43:22;14.20;;;12.47;;
47882;SDS011;37739;50.350;7.578;2022-12-10T08:45:47;17.87;;;13.43;;
47882;SDS011;37739;50.350;7.578;2022-12-10T08:48:15;17.13;;;15.33;;
47882;SDS011;37739;50.350;7.578;2022-12-10T08:50:40;16.43;;;14.13;;
47882;SDS011;37739;50.350;7.578;2022-12-10T08:53:06;15.37;;;13.30;;
47882;SDS011;37739;50.350;7.578;2022-12-10T08:55:31;14.80;;;12.83;;
47882;SDS011;37739;50.350;7.578;2022-12-10T08:57:59;13.20;;;11.50;;
47882;SDS011;37739;50.350;7.578;2022-12-10T09:00:27;17.03;;;13.43;;
47882;SDS011;37739;50.350;7.578;2022-12-10T09:02:52;17.47;;;13.20;;
47882;SDS011;37739;50.350;7.578;2022-12-10T09:05:20;17.40;;;14.37;;
47882;SDS011;37739;50.350;7.578;2022-12-10T09:07:45;16.37;;;14.57;;
47882;SDS011;37739;50.350;7.578;2022-12-10T09:10:13;17.73;;;14.87;;
47882;SDS011;37739;50.350;7.578;2022-12-10T09:12:41;17.60;;;14.00;;
47882;SDS011;37739;50.350;7.578;2022-12-10T09:15:08;13.63;;;10.93;;
47882;SDS011;37739;50.350;7.578;2022-12-10T09:17:36;16.07;;;13.13;;
47882;SDS011;37739;50.350;7.578;2022-12-10T09:20:03;14.87;;;13.00;;
47882;SDS011;37739;50.350;7.578;2022-12-10T09:22:31;17.80;;;14.90;;
47882;SDS011;37739;50.350;7.578;2022-12-10T09:24:57;16.97;;;14.50;;
47882;SDS011;37739;50.350;7.578;2022-12-10T09:27:27;19.20;;;13.50;;
47882;SDS011;37739;50.350;7.578;2022-12-10T09:29:53;15.30;;;13.10;;
47882;SDS011;37739;50.350;7.578;2022-12-10T09:32:18;16.60;;;13.50;;
47882;SDS011;37739;50.350;7.578;2022-12-10T09:34:46;18.00;;;13.97;;
47882;SDS011;37739;50.350;7.578;2022-12-10T09:37:11;17.30;;;14.27;;
47882;SDS011;37739;50.350;7.578;2022-12-10T09:39:39;19.10;;;15.37;;
47882;SDS011;37739;50.350;7.578;2022-12-10T09:42:08;15.97;;;13.80;;
47882;SDS011;37739;50.350;7.578;2022-12-10T09:47:40;17.43;;;14.80;;
47882;SDS011;37739;50.350;7.578;2022-12-10T09:50:21;17.47;;;15.47;;
47882;SDS011;37739;50.350;7.578;2022-12-10T09:52:53;17.47;;;15.47;;
47882;SDS011;37739;50.350;7.578;2022-12-10T09:55:23;16.63;;;14.63;;
47882;SDS011;37739;50.350;7.578;2022-12-10T09:57:56;16.60;;;14.83;;
47882;SDS011;37739;50.350;7.578;2022-12-10T10:00:26;18.13;;;14.53;;
47882;SDS011;37739;50.350;7.578;2022-12-10T10:02:55;19.80;;;16.70;;
47882;SDS011;37739;50.350;7.578;2022-12-10T10:05:27;17.20;;;14.80;;
47882;SDS011;37739;50.350;7.578;2022-12-10T10:07:59;20.40;;;16.47;;
47882;SDS011;37739;50.350;7.578;2022-12-10T10:10:29;16.73;;;12.07;;
47882;SDS011;37739;50.350;7.578;2022-12-10T10:13:21;18.20;;;15.00;;
47882;SDS011;37739;50.350;7.578;2022-12-10T10:15:54;14.50;;;12.73;;
47882;SDS011;37739;50.350;7.578;2022-12-10T10:18:23;13.97;;;12.20;;
47882;SDS011;37739;50.350;7.578;2022-12-10T10:20:51;16.67;;;14.50;;
47882;SDS011;37739;50.350;7.578;2022-12-10T10:23:20;16.97;;;14.73;;
47882;SDS011;37739;50.350;7.578;2022-12-10T10:25:47;19.03;;;14.63;;
47882;SDS011;37739;50.350;7.578;2022-12-10T10:28:20;15.90;;;14.20;;
47882;SDS011;37739;50.350;7.578;2022-12-10T10:30:47;18.17;;;15.30;;
47882;SDS011;37739;50.350;7.578;2022-12-10T10:33:15;16.53;;;14.40;;
47882;SDS011;37739;50.350;7.578;2022-12-10T10:35:42;15.67;;;13.70;;
47882;SDS011;37739;50.350;7.578;2022-12-10T10:38:36;15.70;;;13.17;;
47882;SDS011;37739;50.350;7.578;2022-12-10T10:41:04;16.57;;;12.90;;
47882;SDS011;37739;50.350;7.578;2022-12-10T10:43:41;17.27;;;13.97;;
47882;SDS011;37739;50.350;7.578;2022-12-10T10:46:22;14.90;;;13.40;;
47882;SDS011;37739;50.350;7.578;2022-12-10T10:48:53;12.80;;;11.30;;
47882;SDS011;37739;50.350;7.578;2022-12-10T10:51:58;17.73;;;14.17;;
47882;SDS011;37739;50.350;7.578;2022-12-10T10:54:40;16.73;;;14.23;;
47882;SDS011;37739;50.350;7.578;2022-12-10T11:00:00;18.33;;;16.27;;
47882;SDS011;37739;50.350;7.578;2022-12-10T11:02:32;14.37;;;12.40;;
47882;SDS011;37739;50.350;7.578;2022-12-10T11:05:07;18.00;;;15.63;;
47882;SDS011;37739;50.350;7.578;2022-12-10T11:07:42;17.80;;;14.33;;
47882;SDS011;37739;50.350;7.578;2022-12-10T11:10:24;17.43;;;15.57;;
47882;SDS011;37739;50.350;7.578;2022-12-10T11:13:03;15.53;;;13.50;;
47882;SDS011;37739;50.350;7.578;2022-12-10T11:15:43;15.90;;;13.13;;
47882;SDS011;37739;50.350;7.578;2022-12-10T11:18:30;12.57;;;9.87;;
47882;SDS011;37739;50.350;7.578;2022-12-10T11:21:06;22.57;;;17.27;;
47882;SDS011;37739;50.350;7.578;2022-12-10T11:23:45;18.00;;;14.83;;
47882;SDS011;37739;50.350;7.578;2022-12-10T11:38:03;17.57;;;15.10;;
47882;SDS011;37739;50.350;7.578;2022-12-10T11:51:34;15.67;;;13.43;;
47882;SDS011;37739;50.350;7.578;2022-12-10T11:54:23;18.73;;;14.93;;
47882;SDS011;37739;50.350;7.578;2022-12-10T11:57:19;18.00;;;15.03;;
47882;SDS011;37739;50.350;7.578;2022-12-10T12:00:00;14.00;;;12.27;;
47882;SDS011;37739;50.350;7.578;2022-12-10T12:10:24;17.77;;;13.17;;
47882;SDS011;37739;50.350;7.578;2022-12-10T12:15:34;15.53;;;12.67;;
47882;SDS011;37739;50.350;7.578;2022-12-10T12:20:49;13.53;;;12.07;;
47882;SDS011;37739;50.350;7.578;2022-12-10T12:23:29;13.33;;;9.30;;
47882;SDS011;37739;50.350;7.578;2022-12-10T12:25:57;20.13;;;15.97;;
47882;SDS011;37739;50.350;7.578;2022-12-10T12:31:05;14.10;;;12.13;;
47882;SDS011;37739;50.350;7.578;2022-12-10T12:36:24;13.80;;;10.87;;
47882;SDS011;37739;50.350;7.578;2022-12-10T12:39:00;16.73;;;13.90;;
47882;SDS011;37739;50.350;7.578;2022-12-10T12:46:46;18.33;;;13.77;;
47882;SDS011;37739;50.350;7.578;2022-12-10T12:49:29;18.10;;;13.40;;
47882;SDS011;37739;50.350;7.578;2022-12-10T12:54:30;14.03;;;11.73;;
47882;SDS011;37739;50.350;7.578;2022-12-10T12:57:06;12.23;;;10.40;;
47882;SDS011;37739;50.350;7.578;2022-12-10T13:13:24;17.00;;;12.90;;
47882;SDS011;37739;50.350;7.578;2022-12-10T13:15:54;13.47;;;12.00;;
47882;SDS011;37739;50.350;7.578;2022-12-10T13:18:33;14.47;;;11.87;;
47882;SDS011;37739;50.350;7.578;2022-12-10T13:21:16;14.50;;;12.30;;
47882;SDS011;37739;50.350;7.578;2022-12-10T13:24:04;20.10;;;14.20;;
47882;SDS011;37739;50.350;7.578;2022-12-10T13:26:32;17.50;;;13.73;;
47882;SDS011;37739;50.350;7.578;2022-12-10T13:32:43;19.47;;;16.30;;
47882;SDS011;37739;50.350;7.578;2022-12-10T13:49:00;20.50;;;18.30;;
47882;SDS011;37739;50.350;7.578;2022-12-10T13:54:32;18.57;;;15.43;;
47882;SDS011;37739;50.350;7.578;2022-12-10T14:00:14;22.83;;;15.13;;
47882;SDS011;37739;50.350;7.578;2022-12-10T14:02:50;17.50;;;14.90;;
47882;SDS011;37739;50.350;7.578;2022-12-10T14:05:23;20.13;;;14.80;;
47882;SDS011;37739;50.350;7.578;2022-12-10T14:08:02;20.87;;;15.57;;
47882;SDS011;37739;50.350;7.578;2022-12-10T14:10:31;17.57;;;13.60;;
47882;SDS011;37739;50.350;7.578;2022-12-10T14:12:59;19.73;;;15.50;;
47882;SDS011;37739;50.350;7.578;2022-12-10T14:15:26;21.87;;;15.00;;
47882;SDS011;37739;50.350;7.578;2022-12-10T14:17:54;21.90;;;15.80;;
47882;SDS011;37739;50.350;7.578;2022-12-10T14:20:26;19.20;;;16.27;;
47882;SDS011;37739;50.350;7.578;2022-12-10T14:23:02;20.50;;;15.57;;
47882;SDS011;37739;50.350;7.578;2022-12-10T14:25:51;18.60;;;15.53;;
47882;SDS011;37739;50.350;7.578;2022-12-10T14:28:20;16.60;;;14.20;;
47882;SDS011;37739;50.350;7.578;2022-12-10T14:30:50;17.33;;;14.93;;
47882;SDS011;37739;50.350;7.578;2022-12-10T14:33:17;16.47;;;14.17;;
47882;SDS011;37739;50.350;7.578;2022-12-10T14:35:47;14.70;;;12.03;;
47882;SDS011;37739;50.350;7.578;2022-12-10T14:38:27;21.43;;;16.07;;
47882;SDS011;37739;50.350;7.578;2022-12-10T14:40:57;14.73;;;13.03;;
47882;SDS011;37739;50.350;7.578;2022-12-10T14:43:36;19.50;;;14.87;;
47882;SDS011;37739;50.350;7.578;2022-12-10T14:46:04;17.30;;;14.17;;
47882;SDS011;37739;50.350;7.578;2022-12-10T14:48:40;16.83;;;14.60;;
47882;SDS011;37739;50.350;7.578;2022-12-10T14:51:18;17.43;;;13.57;;
47882;SDS011;37739;50.350;7.578;2022-12-10T14:53:48;19.87;;;14.23;;
47882;SDS011;37739;50.350;7.578;2022-12-10T14:56:25;16.37;;;13.33;;
47882;SDS011;37739;50.350;7.578;2022-12-10T15:01:30;17.47;;;14.40;;
47882;SDS011;37739;50.350;7.578;2022-12-10T15:03:59;16.77;;;12.90;;
47882;SDS011;37739;50.350;7.578;2022-12-10T15:06:27;17.07;;;13.73;;
47882;SDS011;37739;50.350;7.578;2022-12-10T15:08:54;17.80;;;14.10;;
47882;SDS011;37739;50.350;7.578;2022-12-10T15:11:22;20.47;;;17.03;;
47882;SDS011;37739;50.350;7.578;2022-12-10T15:13:53;13.97;;;12.47;;
47882;SDS011;37739;50.350;7.578;2022-12-10T15:16:42;18.90;;;15.57;;
47882;SDS011;37739;50.350;7.578;2022-12-10T15:21:47;22.73;;;15.20;;
47882;SDS011;37739;50.350;7.578;2022-12-10T15:24:20;19.67;;;15.43;;
47882;SDS011;37739;50.350;7.578;2022-12-10T15:26:50;17.03;;;13.77;;
47882;SDS011;37739;50.350;7.578;2022-12-10T15:31:49;20.17;;;16.80;;
47882;SDS011;37739;50.350;7.578;2022-12-10T15:34:19;11.60;;;9.60;;
47882;SDS011;37739;50.350;7.578;2022-12-10T15:36:54;20.00;;;15.80;;
47882;SDS011;37739;50.350;7.578;2022-12-10T15:39:29;17.83;;;14.67;;
47882;SDS011;37739;50.350;7.578;2022-12-10T15:42:01;21.87;;;17.43;;
47882;SDS011;37739;50.350;7.578;2022-12-10T15:44:40;18.43;;;16.33;;
47882;SDS011;37739;50.350;7.578;2022-12-10T15:47:14;20.87;;;16.87;;
47882;SDS011;37739;50.350;7.578;2022-12-10T15:49:51;20.33;;;17.30;;
47882;SDS011;37739;50.350;7.578;2022-12-10T15:52:20;20.67;;;18.20;;
47882;SDS011;37739;50.350;7.578;2022-12-10T15:54:52;19.73;;;16.20;;
47882;SDS011;37739;50.350;7.578;2022-12-10T15:57:25;22.40;;;18.03;;
47882;SDS011;37739;50.350;7.578;2022-12-10T15:59:53;23.03;;;19.27;;
47882;SDS011;37739;50.350;7.578;2022-12-10T16:07:35;23.13;;;18.47;;
47882;SDS011;37739;50.350;7.578;2022-12-10T16:10:00;26.07;;;19.93;;
47882;SDS011;37739;50.350;7.578;2022-12-10T16:12:28;24.33;;;19.60;;
47882;SDS011;37739;50.350;7.578;2022-12-10T16:14:56;25.53;;;20.70;;
47882;SDS011;37739;50.350;7.578;2022-12-10T16:17:28;23.97;;;18.97;;
47882;SDS011;37739;50.350;7.578;2022-12-10T16:20:17;16.80;;;14.07;;
47882;SDS011;37739;50.350;7.578;2022-12-10T16:22:48;22.00;;;18.30;;
47882;SDS011;37739;50.350;7.578;2022-12-10T16:25:17;23.40;;;17.80;;
47882;SDS011;37739;50.350;7.578;2022-12-10T16:27:43;23.83;;;18.10;;
47882;SDS011;37739;50.350;7.578;2022-12-10T16:30:13;19.00;;;15.53;;
47882;SDS011;37739;50.350;7.578;2022-12-10T16:32:42;26.60;;;17.90;;
47882;SDS011;37739;50.350;7.578;2022-12-10T16:35:08;21.23;;;18.00;;
47882;SDS011;37739;50.350;7.578;2022-12-10T16:37:33;24.63;;;21.30;;
47882;SDS011;37739;50.350;7.578;2022-12-10T16:39:59;24.33;;;19.90;;
47882;SDS011;37739;50.350;7.578;2022-12-10T16:42:29;23.43;;;19.60;;
47882;SDS011;37739;50.350;7.578;2022-12-10T16:44:55;20.73;;;17.90;;
47882;SDS011;37739;50.350;7.578;2022-12-10T16:47:22;23.83;;;18.63;;
47882;SDS011;37739;50.350;7.578;2022-12-10T16:49:50;22.53;;;18.43;;